sensor_id;sensor_type;location;lat;lon;timestamp;P1;durP1;ratioP1;P2;durP2;ratioP2
20739;SDS011;10530;49.968;19.844;2023-02-01T00:00:11;2.90;;;0.90;;
20739;SDS011;10530;49.968;19.844;2023-02-01T00:05:14;4.47;;;1.30;;
20739;SDS011;10530;49.968;19.844;2023-02-01T00:10:17;4.40;;;1.20;;
20739;SDS011;10530;49.968;19.844;2023-02-01T00:15:20;4.13;;;1.30;;
20739;SDS011;10530;49.968;19.844;2023-02-01T00:20:25;3.47;;;1.42;;
20739;SDS011;10530;49.968;19.844;2023-02-01T00:25:27;4.00;;;1.00;;
20739;SDS011;10530;49.968;19.844;2023-02-01T00:30:30;4.63;;;1.40;;
20739;SDS011;10530;49.968;19.844;2023-02-01T00:35:35;7.07;;;1.70;;
20739;SDS011;10530;49.968;19.844;2023-02-01T00:40:38;3.40;;;1.30;;
20739;SDS011;10530;49.968;19.844;2023-02-01T00:45:41;3.25;;;1.42;;
20739;SDS011;10530;49.968;19.844;2023-02-01T00:50:44;4.75;;;1.70;;
20739;SDS011;10530;49.968;19.844;2023-02-01T00:55:47;6.10;;;2.00;;
20739;SDS011;10530;49.968;19.844;2023-02-01T01:00:50;3.05;;;1.38;;
20739;SDS011;10530;49.968;19.844;2023-02-01T01:06:06;5.40;;;1.73;;
20739;SDS011;10530;49.968;19.844;2023-02-01T01:11:12;11.02;;;1.92;;
20739;SDS011;10530;49.968;19.844;2023-02-01T01:16:21;2.95;;;1.13;;
20739;SDS011;10530;49.968;19.844;2023-02-01T01:21:25;4.33;;;1.20;;
20739;SDS011;10530;49.968;19.844;2023-02-01T01:26:28;2.97;;;1.02;;
20739;SDS011;10530;49.968;19.844;2023-02-01T01:31:32;3.40;;;1.10;;
20739;SDS011;10530;49.968;19.844;2023-02-01T01:36:35;5.10;;;1.25;;
20739;SDS011;10530;49.968;19.844;2023-02-01T01:41:38;4.97;;;1.45;;
20739;SDS011;10530;49.968;19.844;2023-02-01T01:46:54;4.07;;;1.80;;
20739;SDS011;10530;49.968;19.844;2023-02-01T01:51:58;4.57;;;1.33;;
20739;SDS011;10530;49.968;19.844;2023-02-01T06:32:01;8.13;;;1.17;;
20739;SDS011;10530;49.968;19.844;2023-02-01T06:37:05;3.63;;;1.38;;
20739;SDS011;10530;49.968;19.844;2023-02-01T06:42:11;6.03;;;1.20;;
20739;SDS011;10530;49.968;19.844;2023-02-01T06:47:13;2.90;;;1.00;;
20739;SDS011;10530;49.968;19.844;2023-02-01T06:52:16;5.50;;;1.10;;
20739;SDS011;10530;49.968;19.844;2023-02-01T06:57:19;3.00;;;0.82;;
20739;SDS011;10530;49.968;19.844;2023-02-01T07:02:22;5.40;;;1.30;;
20739;SDS011;10530;49.968;19.844;2023-02-01T07:07:25;3.40;;;1.10;;
20739;SDS011;10530;49.968;19.844;2023-02-01T07:12:28;3.97;;;1.52;;
20739;SDS011;10530;49.968;19.844;2023-02-01T07:17:31;3.63;;;1.25;;
20739;SDS011;10530;49.968;19.844;2023-02-01T07:22:34;7.10;;;1.75;;
20739;SDS011;10530;49.968;19.844;2023-02-01T07:27:37;3.50;;;1.67;;
20739;SDS011;10530;49.968;19.844;2023-02-01T07:32:40;5.87;;;1.87;;
20739;SDS011;10530;49.968;19.844;2023-02-01T07:37:44;4.38;;;1.48;;
20739;SDS011;10530;49.968;19.844;2023-02-01T07:42:47;2.72;;;1.10;;
20739;SDS011;10530;49.968;19.844;2023-02-01T07:47:51;5.68;;;1.90;;
20739;SDS011;10530;49.968;19.844;2023-02-01T07:52:55;3.85;;;0.90;;
20739;SDS011;10530;49.968;19.844;2023-02-01T07:58:02;3.77;;;1.07;;
20739;SDS011;10530;49.968;19.844;2023-02-01T08:03:04;3.05;;;1.00;;
20739;SDS011;10530;49.968;19.844;2023-02-01T08:08:08;3.85;;;1.10;;
20739;SDS011;10530;49.968;19.844;2023-02-01T08:13:11;7.43;;;1.52;;
20739;SDS011;10530;49.968;19.844;2023-02-01T08:18:14;5.65;;;1.08;;
20739;SDS011;10530;49.968;19.844;2023-02-01T08:23:20;3.60;;;1.20;;
20739;SDS011;10530;49.968;19.844;2023-02-01T08:28:23;6.38;;;1.38;;
20739;SDS011;10530;49.968;19.844;2023-02-01T08:33:26;3.83;;;1.08;;
20739;SDS011;10530;49.968;19.844;2023-02-01T08:38:29;4.18;;;1.35;;
20739;SDS011;10530;49.968;19.844;2023-02-01T08:43:33;4.43;;;1.40;;
20739;SDS011;10530;49.968;19.844;2023-02-01T08:48:36;3.27;;;1.07;;
20739;SDS011;10530;49.968;19.844;2023-02-01T08:53:41;4.05;;;1.13;;
20739;SDS011;10530;49.968;19.844;2023-02-01T08:58:44;3.45;;;1.00;;
20739;SDS011;10530;49.968;19.844;2023-02-01T09:03:47;5.85;;;1.20;;
20739;SDS011;10530;49.968;19.844;2023-02-01T09:08:51;6.00;;;1.40;;
20739;SDS011;10530;49.968;19.844;2023-02-01T09:13:54;5.27;;;1.50;;
20739;SDS011;10530;49.968;19.844;2023-02-01T09:18:57;3.47;;;1.30;;
20739;SDS011;10530;49.968;19.844;2023-02-01T09:24:20;3.50;;;0.82;;
20739;SDS011;10530;49.968;19.844;2023-02-01T09:29:23;12.90;;;3.15;;
20739;SDS011;10530;49.968;19.844;2023-02-01T09:34:26;4.38;;;1.42;;
20739;SDS011;10530;49.968;19.844;2023-02-01T09:39:29;4.77;;;1.23;;
20739;SDS011;10530;49.968;19.844;2023-02-01T09:49:48;3.05;;;1.20;;
20739;SDS011;10530;49.968;19.844;2023-02-01T09:55:13;5.10;;;1.77;;
20739;SDS011;10530;49.968;19.844;2023-02-01T10:00:36;4.88;;;1.63;;
20739;SDS011;10530;49.968;19.844;2023-02-01T10:11:00;3.67;;;1.52;;
20739;SDS011;10530;49.968;19.844;2023-02-01T10:16:32;3.22;;;0.93;;
20739;SDS011;10530;49.968;19.844;2023-02-01T10:27:01;4.28;;;1.30;;
20739;SDS011;10530;49.968;19.844;2023-02-01T10:32:30;3.23;;;1.53;;
20739;SDS011;10530;49.968;19.844;2023-02-01T10:37:37;3.03;;;1.30;;
20739;SDS011;10530;49.968;19.844;2023-02-01T10:42:43;14.60;;;3.63;;
20739;SDS011;10530;49.968;19.844;2023-02-01T10:47:48;2.88;;;1.25;;
20739;SDS011;10530;49.968;19.844;2023-02-01T10:53:01;4.07;;;1.40;;
20739;SDS011;10530;49.968;19.844;2023-02-01T10:58:16;6.33;;;2.00;;
20739;SDS011;10530;49.968;19.844;2023-02-01T11:03:44;5.70;;;1.58;;
20739;SDS011;10530;49.968;19.844;2023-02-01T11:08:55;7.80;;;1.90;;
20739;SDS011;10530;49.968;19.844;2023-02-01T11:14:13;6.50;;;1.90;;
20739;SDS011;10530;49.968;19.844;2023-02-01T11:19:21;3.88;;;1.88;;
20739;SDS011;10530;49.968;19.844;2023-02-01T11:24:34;4.60;;;1.70;;
20739;SDS011;10530;49.968;19.844;2023-02-01T11:29:41;5.03;;;1.75;;
20739;SDS011;10530;49.968;19.844;2023-02-01T11:34:49;5.55;;;1.60;;
20739;SDS011;10530;49.968;19.844;2023-02-01T11:40:26;4.82;;;1.75;;
20739;SDS011;10530;49.968;19.844;2023-02-01T11:45:32;4.25;;;2.08;;
20739;SDS011;10530;49.968;19.844;2023-02-01T12:06:31;4.65;;;2.17;;
20739;SDS011;10530;49.968;19.844;2023-02-01T12:11:59;4.90;;;1.40;;
20739;SDS011;10530;49.968;19.844;2023-02-01T12:22:29;8.00;;;2.38;;
20739;SDS011;10530;49.968;19.844;2023-02-01T12:27:52;5.38;;;1.80;;
20739;SDS011;10530;49.968;19.844;2023-02-01T13:11:05;10.83;;;2.33;;
20739;SDS011;10530;49.968;19.844;2023-02-01T13:16:34;4.40;;;1.70;;
20739;SDS011;10530;49.968;19.844;2023-02-01T13:21:53;5.93;;;2.00;;
20739;SDS011;10530;49.968;19.844;2023-02-01T13:27:01;2.88;;;1.02;;
20739;SDS011;10530;49.968;19.844;2023-02-01T13:43:25;3.60;;;1.60;;
20739;SDS011;10530;49.968;19.844;2023-02-01T13:53:48;5.78;;;1.67;;
20739;SDS011;10530;49.968;19.844;2023-02-01T13:58:51;3.88;;;1.63;;
20739;SDS011;10530;49.968;19.844;2023-02-01T14:19:20;3.67;;;1.23;;
20739;SDS011;10530;49.968;19.844;2023-02-01T14:24:24;3.25;;;0.85;;
20739;SDS011;10530;49.968;19.844;2023-02-01T14:29:34;3.60;;;1.30;;
20739;SDS011;10530;49.968;19.844;2023-02-01T14:35:00;6.20;;;1.58;;
20739;SDS011;10530;49.968;19.844;2023-02-01T15:00:53;3.25;;;1.15;;
20739;SDS011;10530;49.968;19.844;2023-02-01T15:05:58;2.78;;;1.08;;
20739;SDS011;10530;49.968;19.844;2023-02-01T15:11:15;5.03;;;1.50;;
20739;SDS011;10530;49.968;19.844;2023-02-01T15:16:19;4.57;;;1.60;;
20739;SDS011;10530;49.968;19.844;2023-02-01T15:21:24;4.80;;;1.80;;
20739;SDS011;10530;49.968;19.844;2023-02-01T15:26:31;3.20;;;1.10;;
20739;SDS011;10530;49.968;19.844;2023-02-01T15:31:42;4.00;;;1.20;;
20739;SDS011;10530;49.968;19.844;2023-02-01T15:36:53;2.67;;;0.93;;
20739;SDS011;10530;49.968;19.844;2023-02-01T15:42:11;4.15;;;1.75;;
20739;SDS011;10530;49.968;19.844;2023-02-01T15:47:25;5.00;;;1.57;;
20739;SDS011;10530;49.968;19.844;2023-02-01T15:57:40;5.40;;;2.40;;
20739;SDS011;10530;49.968;19.844;2023-02-01T16:02:54;7.03;;;2.13;;
20739;SDS011;10530;49.968;19.844;2023-02-01T16:08:01;5.10;;;2.25;;
20739;SDS011;10530;49.968;19.844;2023-02-01T16:13:24;8.73;;;3.00;;
20739;SDS011;10530;49.968;19.844;2023-02-01T16:18:28;7.05;;;2.55;;
20739;SDS011;10530;49.968;19.844;2023-02-01T16:23:30;2.75;;;1.02;;
20739;SDS011;10530;49.968;19.844;2023-02-01T16:28:33;4.53;;;1.48;;
20739;SDS011;10530;49.968;19.844;2023-02-01T16:33:36;4.10;;;2.00;;
20739;SDS011;10530;49.968;19.844;2023-02-01T16:38:39;6.97;;;2.60;;
20739;SDS011;10530;49.968;19.844;2023-02-01T16:43:42;4.40;;;2.08;;
20739;SDS011;10530;49.968;19.844;2023-02-01T16:48:46;5.82;;;2.72;;
20739;SDS011;10530;49.968;19.844;2023-02-01T16:53:54;11.05;;;3.22;;
20739;SDS011;10530;49.968;19.844;2023-02-01T16:58:58;4.78;;;2.22;;
20739;SDS011;10530;49.968;19.844;2023-02-01T17:04:01;7.30;;;2.70;;
20739;SDS011;10530;49.968;19.844;2023-02-01T17:09:04;7.15;;;2.83;;
20739;SDS011;10530;49.968;19.844;2023-02-01T17:14:18;11.80;;;2.90;;
20739;SDS011;10530;49.968;19.844;2023-02-01T17:19:23;4.28;;;2.13;;
20739;SDS011;10530;49.968;19.844;2023-02-01T17:24:28;9.35;;;3.42;;
20739;SDS011;10530;49.968;19.844;2023-02-01T17:29:48;9.90;;;2.83;;
20739;SDS011;10530;49.968;19.844;2023-02-01T17:34:52;7.00;;;2.80;;
20739;SDS011;10530;49.968;19.844;2023-02-01T17:39:56;7.38;;;2.08;;
20739;SDS011;10530;49.968;19.844;2023-02-01T17:45:00;6.18;;;1.58;;
20739;SDS011;10530;49.968;19.844;2023-02-01T17:50:13;5.88;;;1.83;;
20739;SDS011;10530;49.968;19.844;2023-02-01T17:55:20;6.20;;;2.57;;
20739;SDS011;10530;49.968;19.844;2023-02-01T18:00:26;8.63;;;2.00;;
20739;SDS011;10530;49.968;19.844;2023-02-01T18:05:35;8.05;;;3.20;;
20739;SDS011;10530;49.968;19.844;2023-02-01T18:10:41;5.60;;;2.08;;
20739;SDS011;10530;49.968;19.844;2023-02-01T18:15:45;5.50;;;2.20;;
20739;SDS011;10530;49.968;19.844;2023-02-01T18:20:49;5.90;;;2.70;;
20739;SDS011;10530;49.968;19.844;2023-02-01T18:25:52;5.78;;;2.33;;
20739;SDS011;10530;49.968;19.844;2023-02-01T18:30:54;10.40;;;3.40;;
20739;SDS011;10530;49.968;19.844;2023-02-01T18:35:58;9.98;;;3.28;;
20739;SDS011;10530;49.968;19.844;2023-02-01T18:41:01;6.15;;;2.05;;
20739;SDS011;10530;49.968;19.844;2023-02-01T18:46:07;5.07;;;2.33;;
20739;SDS011;10530;49.968;19.844;2023-02-01T18:51:18;3.95;;;1.98;;
20739;SDS011;10530;49.968;19.844;2023-02-01T18:56:23;4.80;;;2.28;;
20739;SDS011;10530;49.968;19.844;2023-02-01T19:01:26;5.70;;;2.05;;
20739;SDS011;10530;49.968;19.844;2023-02-01T19:06:29;9.25;;;3.03;;
20739;SDS011;10530;49.968;19.844;2023-02-01T19:11:32;10.10;;;3.20;;
20739;SDS011;10530;49.968;19.844;2023-02-01T19:16:35;8.07;;;2.80;;
20739;SDS011;10530;49.968;19.844;2023-02-01T19:21:40;6.97;;;2.55;;
20739;SDS011;10530;49.968;19.844;2023-02-01T19:26:43;11.40;;;3.35;;
20739;SDS011;10530;49.968;19.844;2023-02-01T19:31:46;9.65;;;3.75;;
20739;SDS011;10530;49.968;19.844;2023-02-01T19:36:49;7.77;;;3.43;;
20739;SDS011;10530;49.968;19.844;2023-02-01T19:41:53;8.55;;;3.20;;
20739;SDS011;10530;49.968;19.844;2023-02-01T19:46:56;8.23;;;3.55;;
20739;SDS011;10530;49.968;19.844;2023-02-01T19:51:59;10.25;;;2.72;;
20739;SDS011;10530;49.968;19.844;2023-02-01T19:57:02;5.35;;;2.00;;
20739;SDS011;10530;49.968;19.844;2023-02-01T20:02:05;4.67;;;2.10;;
20739;SDS011;10530;49.968;19.844;2023-02-01T20:07:08;5.40;;;2.25;;
20739;SDS011;10530;49.968;19.844;2023-02-01T20:12:13;4.53;;;1.75;;
20739;SDS011;10530;49.968;19.844;2023-02-01T20:17:16;6.65;;;2.33;;
20739;SDS011;10530;49.968;19.844;2023-02-01T20:22:19;5.38;;;1.85;;
20739;SDS011;10530;49.968;19.844;2023-02-01T20:27:23;10.07;;;3.90;;
20739;SDS011;10530;49.968;19.844;2023-02-01T20:32:26;6.93;;;2.53;;
20739;SDS011;10530;49.968;19.844;2023-02-01T20:37:30;5.18;;;1.92;;
20739;SDS011;10530;49.968;19.844;2023-02-01T20:42:33;4.30;;;1.95;;
20739;SDS011;10530;49.968;19.844;2023-02-01T20:47:37;3.53;;;1.42;;
20739;SDS011;10530;49.968;19.844;2023-02-01T20:52:42;6.13;;;1.73;;
20739;SDS011;10530;49.968;19.844;2023-02-01T20:57:45;6.20;;;2.30;;
20739;SDS011;10530;49.968;19.844;2023-02-01T21:02:48;7.10;;;2.50;;
20739;SDS011;10530;49.968;19.844;2023-02-01T21:07:52;5.32;;;2.03;;
20739;SDS011;10530;49.968;19.844;2023-02-01T21:12:55;4.97;;;1.73;;
20739;SDS011;10530;49.968;19.844;2023-02-01T21:18:05;3.90;;;1.87;;
20739;SDS011;10530;49.968;19.844;2023-02-01T21:23:10;5.65;;;2.17;;
20739;SDS011;10530;49.968;19.844;2023-02-01T21:28:13;5.20;;;2.28;;
20739;SDS011;10530;49.968;19.844;2023-02-01T21:33:16;7.28;;;1.67;;
20739;SDS011;10530;49.968;19.844;2023-02-01T21:38:19;4.28;;;1.70;;
20739;SDS011;10530;49.968;19.844;2023-02-01T21:43:22;5.03;;;1.47;;
20739;SDS011;10530;49.968;19.844;2023-02-01T21:48:25;3.47;;;1.15;;
20739;SDS011;10530;49.968;19.844;2023-02-01T21:53:29;3.80;;;1.42;;
20739;SDS011;10530;49.968;19.844;2023-02-01T21:58:32;3.28;;;1.35;;
20739;SDS011;10530;49.968;19.844;2023-02-01T22:03:35;2.67;;;0.95;;
20739;SDS011;10530;49.968;19.844;2023-02-01T22:08:38;4.63;;;1.97;;
20739;SDS011;10530;49.968;19.844;2023-02-01T22:13:40;2.85;;;1.00;;
20739;SDS011;10530;49.968;19.844;2023-02-01T22:18:43;9.60;;;1.55;;
20739;SDS011;10530;49.968;19.844;2023-02-01T22:23:51;7.05;;;1.30;;
20739;SDS011;10530;49.968;19.844;2023-02-01T22:28:55;5.45;;;1.80;;
20739;SDS011;10530;49.968;19.844;2023-02-01T22:33:58;3.93;;;1.67;;
20739;SDS011;10530;49.968;19.844;2023-02-01T22:39:01;5.95;;;1.90;;
20739;SDS011;10530;49.968;19.844;2023-02-01T22:44:05;3.53;;;1.80;;
20739;SDS011;10530;49.968;19.844;2023-02-01T22:49:08;4.18;;;1.30;;
20739;SDS011;10530;49.968;19.844;2023-02-01T22:54:18;6.93;;;2.30;;
20739;SDS011;10530;49.968;19.844;2023-02-01T22:59:24;6.03;;;1.93;;
20739;SDS011;10530;49.968;19.844;2023-02-01T23:04:28;5.15;;;1.85;;
20739;SDS011;10530;49.968;19.844;2023-02-01T23:09:30;4.28;;;1.13;;
20739;SDS011;10530;49.968;19.844;2023-02-01T23:14:33;7.55;;;1.33;;
20739;SDS011;10530;49.968;19.844;2023-02-01T23:19:56;4.43;;;0.93;;
20739;SDS011;10530;49.968;19.844;2023-02-01T23:24:59;3.67;;;1.57;;
20739;SDS011;10530;49.968;19.844;2023-02-01T23:30:03;2.22;;;0.73;;
20739;SDS011;10530;49.968;19.844;2023-02-01T23:35:07;7.00;;;1.50;;
20739;SDS011;10530;49.968;19.844;2023-02-01T23:40:10;2.55;;;0.90;;
20739;SDS011;10530;49.968;19.844;2023-02-01T23:45:13;3.75;;;1.48;;
20739;SDS011;10530;49.968;19.844;2023-02-01T23:50:16;4.37;;;2.00;;
20739;SDS011;10530;49.968;19.844;2023-02-01T23:55:19;3.33;;;1.08;;
